HRYR/KGL METAR and TAF weather

Enter ICAO airport designator
Station Type Date Time Source
HRYR METAR 2021/05/12 02:00 UTC NOAA

HRYR 120200Z 36003KT 9999 BKN023 BKN090 18/18 Q1021 NOSIG


Station Type Date Time Source
HRYR Decoded METAR 2021/05/12 02:00 UTC NOAA

Kigali, Rwanda (HRYR) 01-58S 030-07E 1497M
May 11, 2021 - 10:00 PM EDT / 2021.05.12 0200 UTC
Wind: from the N (360 degrees) at 3 MPH (3 KT):0
Visibility: greater than 7 mile(s):0
Sky conditions: mostly cloudy
Temperature: 64 F (18 C)
Dew Point: 64 F (18 C)
Relative Humidity: 100%
Pressure (altimeter): 30.15 in. Hg (1021 hPa)
ob: HRYR 120200Z 36003KT 9999 BKN023 BKN090 18/18 Q1021 NOSIG
cycle: 2

Station Type Date Time Source
HRYR TAF 2021/05/11 18:54 UTC NOAA

TAF HRYR 111700Z 1118/1224 18006KT 9999 SCT025 SCT10 FM 112100 32004KT BKN025 SCT100
BECMG 1202/1205 08004KT 5000 RA FEW020CB BKN023 BKN090 FM 120900 14006KT 9999 NSW BKN024
TEMPO 1212/1216 20010KT TSRA FEW023CB BKN025
FM122000 33004KT NSW SCT025 BKN100

Example: see airport list